createdAt,value
2019-02-07T00:00:21.711Z,78.70
2019-02-07T00:02:49.975Z,78.60
2019-02-07T00:05:18.254Z,79.30
2019-02-07T00:07:46.587Z,78.70
2019-02-07T00:10:18.600Z,78.80
2019-02-07T00:12:46.858Z,78.80
2019-02-07T00:15:15.620Z,78.70
2019-02-07T00:17:43.954Z,78.80
2019-02-07T00:20:15.318Z,78.80
2019-02-07T00:22:43.663Z,78.80
2019-02-07T00:25:12.026Z,78.70
2019-02-07T00:27:40.304Z,78.70
2019-02-07T00:30:17.604Z,78.70
2019-02-07T00:32:45.880Z,78.70
2019-02-07T00:35:14.135Z,78.70
2019-02-07T00:37:42.411Z,78.70
2019-02-07T00:40:15.402Z,78.70
2019-02-07T00:42:44.390Z,78.70
2019-02-07T00:45:17.147Z,78.70
2019-02-07T00:47:45.499Z,78.70
2019-02-07T00:50:15.094Z,78.80
2019-02-07T00:52:43.473Z,78.70
2019-02-07T00:55:17.013Z,78.80
2019-02-07T00:57:45.349Z,78.80
2019-02-07T01:00:16.775Z,78.70
2019-02-07T01:02:45.058Z,78.70
2019-02-07T01:05:14.351Z,78.70
2019-02-07T01:07:42.731Z,78.70
2019-02-07T01:10:13.747Z,78.60
2019-02-07T01:12:41.312Z,78.70
2019-02-07T01:15:11.701Z,78.30
2019-02-07T01:17:39.980Z,78.30
2019-02-07T01:20:13.687Z,78.10
2019-02-07T01:22:42.024Z,78.10
2019-02-07T01:25:16.250Z,78.00
2019-02-07T01:27:44.526Z,78.00
2019-02-07T01:30:17.775Z,78.00
2019-02-07T01:32:46.071Z,78.00
2019-02-07T01:35:14.400Z,78.00
2019-02-07T01:37:42.696Z,78.10
2019-02-07T01:40:14.332Z,78.10
2019-02-07T01:42:42.585Z,78.20
2019-02-07T01:45:13.557Z,78.20
2019-02-07T01:47:42.054Z,78.30
2019-02-07T01:50:13.487Z,78.20
2019-02-07T01:52:41.856Z,78.30
2019-02-07T01:55:10.961Z,78.30
2019-02-07T01:57:39.218Z,78.40
2019-02-07T02:00:11.799Z,78.40
2019-02-07T02:02:40.140Z,78.50
2019-02-07T02:05:11.654Z,78.60
2019-02-07T02:07:39.988Z,78.50
2019-02-07T02:10:14.570Z,78.60
2019-02-07T02:12:42.839Z,78.60
2019-02-07T02:15:11.755Z,78.60
2019-02-07T02:17:40.032Z,78.60
2019-02-07T02:20:29.372Z,78.60
2019-02-07T02:22:57.631Z,78.60
2019-02-07T02:25:25.891Z,78.50
2019-02-07T02:27:54.248Z,78.40
2019-02-07T02:30:31.271Z,79.10
2019-02-07T02:32:59.917Z,78.50
2019-02-07T02:35:28.522Z,78.40
2019-02-07T02:37:56.818Z,78.50
2019-02-07T02:40:25.143Z,78.50
2019-02-07T02:42:53.425Z,78.40
2019-02-07T02:45:23.006Z,78.60
2019-02-07T02:47:51.430Z,78.40
2019-02-07T02:50:20.331Z,78.50
2019-02-07T02:52:48.699Z,78.40
2019-02-07T02:55:30.805Z,78.50
2019-02-07T02:57:59.168Z,78.40
2019-02-07T03:00:29.174Z,78.40
2019-02-07T03:03:15.697Z,78.40
2019-02-07T03:05:57.901Z,78.40
2019-02-07T03:08:46.193Z,78.50
2019-02-07T03:11:22.085Z,78.60
2019-02-07T03:14:03.972Z,78.60
2019-02-07T03:16:33.892Z,78.70
2019-02-07T03:19:19.024Z,78.70
2019-02-07T03:22:03.893Z,78.70
2019-02-07T03:24:49.118Z,78.70
2019-02-07T03:27:31.283Z,78.70
2019-02-07T03:30:07.304Z,78.70
2019-02-07T03:32:55.173Z,78.70
2019-02-07T03:35:25.140Z,78.70
2019-02-07T03:38:06.686Z,78.70
2019-02-07T03:40:39.349Z,78.70
2019-02-07T03:43:24.982Z,78.70
2019-02-07T03:46:02.977Z,78.60
2019-02-07T03:48:32.535Z,78.70
2019-02-07T03:51:20.178Z,78.70
2019-02-07T03:53:58.554Z,78.70
2019-02-07T03:56:37.432Z,78.70
2019-02-07T03:59:16.271Z,78.70
2019-02-07T04:02:04.046Z,78.70
2019-02-07T04:04:42.401Z,78.70
2019-02-07T04:07:12.870Z,78.70
2019-02-07T04:09:54.571Z,78.60
2019-02-07T04:15:17.900Z,78.50
2019-02-07T04:17:50.660Z,78.00
2019-02-07T04:20:32.466Z,78.30
2019-02-07T04:23:02.447Z,78.40
2019-02-07T04:25:39.204Z,78.40
2019-02-07T04:28:18.025Z,78.50
2019-02-07T04:30:53.674Z,78.50
2019-02-07T04:33:38.550Z,78.50
2019-02-07T04:36:08.453Z,78.30
2019-02-07T04:38:38.450Z,78.40
2019-02-07T04:41:24.577Z,78.10
2019-02-07T04:43:54.967Z,78.40
2019-02-07T04:46:27.905Z,78.30
2019-02-07T04:49:04.402Z,78.40
2019-02-07T04:51:46.196Z,78.40
2019-02-07T04:54:25.085Z,78.60
2019-02-07T04:57:00.782Z,78.60
2019-02-07T04:59:45.994Z,78.60
2019-02-07T05:02:34.082Z,78.60
2019-02-07T05:05:13.264Z,78.70
2019-02-07T05:07:52.571Z,78.70
2019-02-07T05:10:22.479Z,78.70
2019-02-07T05:13:04.267Z,78.80
2019-02-07T05:15:34.246Z,78.70
2019-02-07T05:18:09.699Z,78.80
2019-02-07T05:20:54.771Z,78.70
2019-02-07T05:23:36.451Z,78.90
2019-02-07T05:28:44.452Z,78.90
2019-02-07T05:31:17.297Z,78.90
2019-02-07T05:34:02.101Z,79.00
2019-02-07T05:36:37.710Z,78.90
2019-02-07T05:39:12.099Z,78.90
2019-02-07T05:41:42.027Z,78.90
2019-02-07T05:44:14.787Z,78.80
2019-02-07T05:47:00.846Z,78.80
2019-02-07T05:49:42.729Z,78.70
2019-02-07T05:52:29.007Z,78.70
2019-02-07T05:55:07.964Z,78.70
2019-02-07T05:57:49.663Z,78.80
2019-02-07T06:00:35.938Z,78.70
2019-02-07T06:03:08.692Z,78.70
2019-02-07T06:05:57.961Z,78.70
2019-02-07T06:08:27.863Z,78.80
2019-02-07T06:11:14.070Z,78.80
2019-02-07T06:14:00.010Z,78.90
2019-02-07T06:16:30.010Z,78.80
2019-02-07T06:18:59.915Z,78.70
2019-02-07T06:21:35.779Z,78.60
2019-02-07T06:24:08.491Z,78.60
2019-02-07T06:26:41.134Z,78.60
2019-02-07T06:29:13.890Z,78.50
2019-02-07T06:31:59.012Z,78.30
2019-02-07T06:34:47.235Z,78.30
2019-02-07T06:37:17.150Z,78.40
2019-02-07T06:40:03.133Z,78.30
2019-02-07T06:42:38.736Z,78.40
2019-02-07T06:45:17.533Z,78.50
2019-02-07T06:48:02.519Z,78.50
2019-02-07T06:50:34.936Z,78.50
2019-02-07T06:53:20.860Z,78.60
2019-02-07T06:55:59.553Z,78.60
2019-02-07T06:58:35.201Z,78.70
2019-02-07T07:01:17.065Z,78.70
2019-02-07T07:03:47.051Z,78.80
2019-02-07T07:06:32.642Z,78.90
2019-02-07T07:09:19.014Z,78.90
2019-02-07T07:12:00.846Z,78.90
2019-02-07T07:14:33.674Z,78.90
2019-02-07T07:17:25.388Z,79.00
2019-02-07T07:19:57.694Z,79.20
2019-02-07T07:22:33.430Z,79.10
2019-02-07T07:25:19.794Z,79.30
2019-02-07T07:27:49.772Z,79.20
2019-02-07T07:30:23.014Z,79.20
2019-02-07T07:32:58.988Z,79.30
2019-02-07T07:35:34.900Z,79.20
2019-02-07T07:38:10.598Z,79.20
2019-02-07T07:40:40.879Z,79.20
2019-02-07T07:43:10.796Z,79.20
2019-02-07T07:45:40.687Z,79.20
2019-02-07T07:48:19.643Z,79.10
2019-02-07T07:50:55.611Z,78.90
2019-02-07T07:53:41.695Z,78.60
2019-02-07T07:56:14.683Z,78.40
2019-02-07T07:58:44.616Z,78.60
2019-02-07T08:01:29.760Z,78.40
2019-02-07T08:07:09.758Z,78.40
2019-02-07T08:09:39.679Z,78.40
2019-02-07T08:12:26.123Z,78.60
2019-02-07T08:14:56.109Z,78.60
2019-02-07T08:17:28.598Z,78.70
2019-02-07T08:20:01.258Z,77.80
2019-02-07T08:22:46.266Z,78.50
2019-02-07T08:25:16.172Z,78.40
2019-02-07T08:28:04.101Z,78.40
2019-02-07T08:30:37.007Z,78.50
2019-02-07T08:33:23.071Z,78.60
2019-02-07T08:36:05.164Z,78.40
2019-02-07T08:38:49.792Z,78.60
2019-02-07T08:41:18.867Z,78.70
2019-02-07T08:43:48.882Z,78.70
2019-02-07T08:46:34.682Z,78.50
2019-02-07T08:49:10.536Z,77.90
2019-02-07T08:51:46.018Z,78.40
2019-02-07T08:54:32.355Z,78.50
2019-02-07T08:57:05.301Z,78.20
2019-02-07T08:59:48.759Z,78.40
2019-02-07T09:02:24.787Z,78.50
2019-02-07T09:07:44.950Z,78.70
2019-02-07T09:10:33.222Z,78.70
2019-02-07T09:13:06.008Z,78.70
2019-02-07T09:16:01.530Z,79.00
2019-02-07T09:18:31.439Z,79.00
2019-02-07T09:21:01.420Z,79.10
2019-02-07T09:23:46.680Z,79.40
2019-02-07T09:26:22.469Z,79.40
2019-02-07T09:28:58.607Z,79.40
2019-02-07T09:31:40.549Z,79.60
2019-02-07T09:34:19.819Z,79.30
2019-02-07T09:37:01.607Z,79.50
2019-02-07T09:39:37.337Z,79.80
2019-02-07T09:42:13.044Z,79.70
2019-02-07T09:44:48.995Z,79.70
2019-02-07T09:47:18.981Z,79.60
2019-02-07T09:50:03.871Z,79.60
2019-02-07T09:52:36.983Z,79.70
2019-02-07T09:55:12.585Z,79.70
2019-02-07T09:57:45.254Z,79.80
2019-02-07T10:03:03.015Z,79.70
2019-02-07T10:05:32.961Z,79.60
2019-02-07T10:08:02.927Z,79.50
2019-02-07T10:10:32.819Z,79.50
2019-02-07T10:13:05.435Z,79.50
2019-02-07T10:15:51.001Z,79.40
2019-02-07T10:18:32.768Z,79.40
2019-02-07T10:21:01.198Z,79.20
2019-02-07T10:23:47.385Z,79.70
2019-02-07T10:26:26.259Z,79.60
2019-02-07T10:29:08.128Z,79.60
2019-02-07T10:31:54.647Z,79.70
2019-02-07T10:34:41.491Z,79.70
2019-02-07T10:37:14.350Z,79.70
2019-02-07T10:40:02.780Z,79.70
2019-02-07T10:42:50.470Z,79.60
2019-02-07T10:45:28.939Z,79.90
2019-02-07T10:48:01.418Z,79.70
2019-02-07T10:50:37.033Z,79.70
2019-02-07T10:53:07.016Z,79.70
2019-02-07T10:55:48.735Z,79.50
2019-02-07T10:58:21.308Z,78.80
2019-02-07T11:00:51.312Z,78.90
2019-02-07T11:03:37.261Z,78.90
2019-02-07T11:06:25.384Z,78.40
2019-02-07T11:09:10.511Z,78.70
2019-02-07T11:11:56.868Z,78.60
2019-02-07T11:14:26.799Z,78.10
2019-02-07T11:17:12.970Z,78.40
2019-02-07T11:19:51.959Z,78.30
2019-02-07T11:22:24.505Z,78.10
2019-02-07T11:24:57.190Z,78.30
2019-02-07T11:27:30.090Z,78.30
2019-02-07T11:30:16.698Z,78.30
2019-02-07T11:32:58.822Z,78.40
2019-02-07T11:35:46.979Z,78.40
2019-02-07T11:38:34.914Z,78.40
2019-02-07T11:41:14.825Z,78.30
2019-02-07T11:43:47.193Z,78.30
2019-02-07T11:46:37.366Z,78.30
2019-02-07T11:49:24.472Z,78.40
2019-02-07T11:52:07.034Z,78.40
2019-02-07T11:54:36.930Z,78.50
2019-02-07T11:57:06.870Z,79.10
2019-02-07T11:59:39.790Z,79.40
2019-02-07T12:02:12.663Z,79.20
2019-02-07T12:04:45.542Z,79.30
2019-02-07T12:07:33.671Z,79.10
2019-02-07T12:10:19.866Z,79.00
2019-02-07T12:12:52.479Z,79.40
2019-02-07T12:15:22.390Z,80.20
2019-02-07T12:17:52.300Z,80.20
2019-02-07T12:20:37.156Z,80.10
2019-02-07T12:23:22.175Z,80.30
2019-02-07T12:26:00.831Z,79.40
2019-02-07T12:28:36.062Z,79.40
2019-02-07T12:31:08.053Z,77.90
2019-02-07T12:33:43.804Z,77.20
2019-02-07T12:36:25.585Z,77.30
2019-02-07T12:39:05.812Z,76.60
2019-02-07T12:41:45.315Z,76.60
2019-02-07T12:44:18.308Z,76.70
2019-02-07T12:46:48.210Z,77.20
2019-02-07T12:49:28.976Z,77.80
2019-02-07T12:51:54.187Z,77.50
2019-02-07T12:54:32.677Z,75.70
2019-02-07T12:57:02.931Z,74.70
2019-02-07T12:59:36.707Z,75.90
2019-02-07T13:02:12.599Z,74.90
2019-02-07T13:04:49.654Z,76.00
2019-02-07T13:07:35.802Z,74.80
2019-02-07T13:10:17.151Z,73.80
2019-02-07T13:12:47.119Z,72.60
2019-02-07T13:15:17.111Z,71.50
2019-02-07T13:17:59.106Z,71.80
2019-02-07T13:20:38.057Z,71.30
2019-02-07T13:23:23.194Z,70.90
2019-02-07T13:25:59.294Z,70.90
2019-02-07T13:28:29.297Z,70.80
2019-02-07T13:31:02.165Z,70.70
2019-02-07T13:33:34.861Z,70.70
2019-02-07T13:36:10.663Z,71.30
2019-02-07T13:38:43.387Z,72.70
2019-02-07T13:41:22.521Z,73.20
2019-02-07T13:44:01.470Z,72.60
2019-02-07T13:46:40.610Z,71.80
2019-02-07T13:49:16.446Z,71.20
2019-02-07T13:51:48.774Z,68.90
2019-02-07T13:54:24.633Z,68.60
2019-02-07T13:56:57.865Z,67.20
2019-02-07T13:59:45.504Z,66.30
2019-02-07T14:02:30.535Z,65.70
2019-02-07T14:05:00.455Z,66.30
2019-02-07T14:07:30.376Z,64.30
2019-02-07T14:10:05.782Z,64.60
2019-02-07T14:12:51.023Z,64.10
2019-02-07T14:15:21.000Z,64.10
2019-02-07T14:17:50.975Z,63.10
2019-02-07T14:20:26.796Z,63.90
2019-02-07T14:23:02.456Z,62.70
2019-02-07T14:25:35.642Z,62.20
2019-02-07T14:28:14.338Z,62.30
2019-02-07T14:30:50.306Z,62.70
2019-02-07T14:33:36.671Z,62.20
2019-02-07T14:36:22.750Z,62.80
2019-02-07T14:38:58.415Z,61.30
2019-02-07T14:41:40.117Z,62.00
2019-02-07T14:44:15.447Z,61.50
2019-02-07T14:46:45.347Z,62.80
2019-02-07T14:49:13.726Z,61.70
2019-02-07T14:51:41.997Z,61.40
2019-02-07T14:54:10.830Z,61.30
2019-02-07T14:56:39.127Z,62.00
2019-02-07T14:59:07.452Z,61.40
2019-02-07T15:01:35.728Z,62.10
2019-02-07T15:04:04.360Z,62.10
2019-02-07T15:06:32.648Z,61.90
2019-02-07T15:09:00.911Z,60.20
2019-02-07T15:11:29.585Z,60.70
2019-02-07T15:13:57.838Z,61.00
2019-02-07T15:16:26.263Z,60.80
2019-02-07T15:18:54.543Z,60.80
2019-02-07T15:21:22.807Z,59.60
2019-02-07T15:23:51.085Z,60.70
2019-02-07T15:26:19.431Z,61.30
2019-02-07T15:28:47.716Z,59.50
2019-02-07T15:31:15.979Z,60.20
2019-02-07T15:33:44.322Z,60.10
2019-02-07T15:36:12.591Z,60.80
2019-02-07T15:38:40.930Z,60.90
2019-02-07T15:41:09.195Z,60.00
2019-02-07T15:43:37.458Z,60.70
2019-02-07T15:46:06.196Z,61.20
2019-02-07T15:48:34.464Z,60.80
2019-02-07T15:51:03.037Z,61.30
2019-02-07T15:53:31.379Z,60.00
2019-02-07T15:55:59.733Z,60.60
2019-02-07T15:58:29.706Z,60.90
2019-02-07T16:00:59.990Z,61.70
2019-02-07T16:03:35.850Z,61.90
2019-02-07T16:06:06.325Z,61.80
2019-02-07T16:08:34.162Z,61.80
2019-02-07T16:11:02.414Z,61.50
2019-02-07T16:13:30.693Z,61.90
2019-02-07T16:15:58.952Z,62.10
2019-02-07T16:18:27.313Z,62.00
2019-02-07T16:20:55.631Z,61.40
2019-02-07T16:23:23.912Z,61.70
2019-02-07T16:25:52.195Z,62.20
2019-02-07T16:28:20.543Z,60.90
2019-02-07T16:30:49.118Z,61.10
2019-02-07T16:33:17.443Z,61.30
2019-02-07T16:35:45.726Z,61.40
2019-02-07T16:38:14.083Z,61.10
2019-02-07T16:40:42.411Z,61.60
2019-02-07T16:43:10.684Z,61.40
2019-02-07T16:45:39.471Z,61.70
2019-02-07T16:48:07.731Z,61.70
2019-02-07T16:50:35.999Z,61.70
2019-02-07T16:53:04.263Z,61.90
2019-02-07T16:55:51.968Z,61.50
2019-02-07T16:58:20.660Z,61.70
2019-02-07T17:00:48.926Z,62.20
2019-02-07T17:03:17.259Z,61.80
2019-02-07T17:05:45.535Z,62.10
2019-02-07T17:08:13.898Z,62.10
2019-02-07T17:10:42.267Z,62.30
2019-02-07T17:13:13.856Z,62.60
2019-02-07T17:15:42.178Z,62.70
2019-02-07T17:18:10.572Z,62.70
2019-02-07T17:20:38.851Z,62.90
2019-02-07T17:23:07.118Z,63.60
2019-02-07T17:25:35.375Z,62.40
2019-02-07T17:28:03.665Z,62.40
2019-02-07T17:30:32.598Z,63.30
2019-02-07T17:33:00.850Z,62.90
2019-02-07T17:35:29.124Z,62.90
2019-02-07T17:37:57.387Z,62.60
2019-02-07T17:40:28.956Z,62.50
2019-02-07T17:42:57.251Z,63.10
2019-02-07T17:45:32.246Z,62.90
2019-02-07T17:48:00.886Z,62.70
2019-02-07T17:50:33.910Z,62.80
2019-02-07T17:53:05.282Z,63.00
2019-02-07T17:55:33.538Z,62.90
2019-02-07T17:58:01.891Z,61.90
2019-02-07T18:00:43.413Z,62.80
2019-02-07T18:03:11.795Z,63.00
2019-02-07T18:05:40.117Z,62.60
2019-02-07T18:08:08.439Z,61.70
2019-02-07T18:10:36.814Z,62.40
2019-02-07T18:13:06.542Z,62.30
2019-02-07T18:15:34.814Z,62.40
2019-02-07T18:18:03.087Z,62.30
2019-02-07T18:20:31.367Z,61.80
2019-02-07T18:22:59.690Z,61.50
2019-02-07T18:25:27.979Z,61.70
2019-02-07T18:27:56.318Z,61.60
2019-02-07T18:30:24.952Z,61.20
2019-02-07T18:32:53.227Z,61.20
2019-02-07T18:35:21.478Z,61.40
2019-02-07T18:37:49.746Z,61.20
2019-02-07T18:40:23.243Z,61.50
2019-02-07T18:42:51.521Z,61.10
2019-02-07T18:45:21.407Z,60.50
2019-02-07T18:47:49.771Z,61.50
2019-02-07T18:50:26.234Z,61.70
2019-02-07T18:52:54.571Z,61.10
2019-02-07T18:55:22.847Z,61.90
2019-02-07T18:57:51.213Z,62.30
2019-02-07T19:00:24.914Z,62.60
2019-02-07T19:02:53.188Z,62.60
2019-02-07T19:05:22.490Z,62.80
2019-02-07T19:07:50.840Z,63.00
2019-02-07T19:10:20.892Z,63.30
2019-02-07T19:12:49.162Z,63.70
2019-02-07T19:15:29.630Z,63.80
2019-02-07T19:17:57.907Z,63.90
2019-02-07T19:20:26.163Z,64.00
2019-02-07T19:22:54.510Z,63.70
2019-02-07T19:25:22.859Z,64.00
2019-02-07T19:27:51.171Z,64.30
2019-02-07T19:30:25.123Z,64.50
2019-02-07T19:32:53.395Z,64.40
2019-02-07T19:35:21.727Z,64.40
2019-02-07T19:37:50.059Z,64.60
2019-02-07T19:40:19.783Z,64.70
2019-02-07T19:42:48.110Z,64.70
2019-02-07T19:45:18.711Z,64.30
2019-02-07T19:47:47.058Z,64.60
2019-02-07T19:50:17.871Z,64.50
2019-02-07T19:52:46.693Z,64.50
2019-02-07T19:55:17.172Z,64.40
2019-02-07T19:57:57.865Z,64.70
2019-02-07T20:00:32.007Z,64.60
2019-02-07T20:03:00.735Z,64.30
2019-02-07T20:05:29.078Z,64.30
2019-02-07T20:07:57.331Z,64.50
2019-02-07T20:10:28.033Z,64.60
2019-02-07T20:12:57.191Z,64.60
2019-02-07T20:15:30.394Z,64.70
2019-02-07T20:17:59.975Z,64.60
2019-02-07T20:20:28.691Z,64.70
2019-02-07T20:22:57.034Z,64.80
2019-02-07T20:25:25.370Z,65.00
2019-02-07T20:27:53.718Z,65.40
2019-02-07T20:30:33.094Z,65.60
2019-02-07T20:33:01.553Z,66.00
2019-02-07T20:35:29.878Z,66.20
2019-02-07T20:37:58.208Z,66.50
2019-02-07T20:40:29.144Z,66.90
2019-02-07T20:42:57.502Z,67.00
2019-02-07T20:45:25.878Z,67.30
2019-02-07T20:47:54.193Z,67.60
2019-02-07T20:50:27.030Z,67.70
2019-02-07T20:52:55.286Z,67.80
2019-02-07T20:55:24.258Z,68.00
2019-02-07T20:57:53.245Z,68.10
2019-02-07T21:00:25.133Z,68.30
2019-02-07T21:02:53.470Z,68.30
2019-02-07T21:05:21.799Z,68.30
2019-02-07T21:07:50.137Z,68.10
2019-02-07T21:10:21.570Z,68.00
2019-02-07T21:12:49.899Z,67.90
2019-02-07T21:15:19.716Z,67.20
2019-02-07T21:17:48.447Z,67.60
2019-02-07T21:20:22.087Z,67.40
2019-02-07T21:22:51.054Z,67.40
2019-02-07T21:25:25.067Z,67.10
2019-02-07T21:27:53.324Z,67.40
2019-02-07T21:30:26.956Z,67.30
2019-02-07T21:32:55.346Z,67.40
2019-02-07T21:35:23.691Z,67.30
2019-02-07T21:37:52.019Z,67.40
2019-02-07T21:40:22.895Z,67.40
2019-02-07T21:42:50.575Z,67.10
2019-02-07T21:45:19.530Z,65.70
2019-02-07T21:47:48.634Z,66.80
2019-02-07T21:50:19.228Z,67.20
2019-02-07T21:52:47.578Z,67.30
2019-02-07T21:55:21.152Z,67.40
2019-02-07T21:57:49.418Z,67.60
2019-02-07T22:00:31.767Z,67.60
2019-02-07T22:03:00.046Z,67.80
2019-02-07T22:05:28.379Z,67.80
2019-02-07T22:07:56.698Z,67.90
2019-02-07T22:10:24.968Z,68.10
2019-02-07T22:12:53.307Z,68.40
2019-02-07T22:15:23.825Z,68.10
2019-02-07T22:17:52.080Z,68.00
2019-02-07T22:20:22.186Z,68.40
2019-02-07T22:22:50.439Z,68.30
2019-02-07T22:25:19.238Z,68.50
2019-02-07T22:27:47.519Z,68.50
2019-02-07T22:30:34.991Z,68.40
2019-02-07T22:33:03.314Z,68.60
2019-02-07T22:35:31.568Z,68.50
2019-02-07T22:38:00.489Z,68.50
2019-02-07T22:40:28.842Z,68.50
2019-02-07T22:42:57.139Z,68.70
2019-02-07T22:45:26.201Z,68.60
2019-02-07T22:47:54.471Z,68.60
2019-02-07T22:50:24.775Z,68.50
2019-02-07T22:52:57.010Z,68.40
2019-02-07T22:55:23.620Z,68.40
2019-02-07T22:57:51.942Z,68.40
2019-02-07T23:00:34.462Z,68.40
2019-02-07T23:03:04.927Z,68.40
2019-02-07T23:05:33.185Z,68.30
2019-02-07T23:08:01.438Z,68.60
2019-02-07T23:10:29.777Z,68.70
2019-02-07T23:12:59.779Z,68.80
2019-02-07T23:15:28.143Z,69.20
2019-02-07T23:17:56.464Z,69.20
2019-02-07T23:20:24.738Z,69.30
2019-02-07T23:22:53.066Z,69.10
2019-02-07T23:25:21.334Z,69.20
2019-02-07T23:27:49.592Z,69.40
2019-02-07T23:30:19.370Z,69.30
2019-02-07T23:32:47.639Z,69.40
2019-02-07T23:35:16.385Z,69.30
2019-02-07T23:37:44.706Z,69.30
2019-02-07T23:40:19.669Z,69.40
2019-02-07T23:42:48.004Z,69.40
2019-02-07T23:45:19.235Z,69.20
2019-02-07T23:47:47.495Z,69.30
2019-02-07T23:50:15.842Z,69.30
2019-02-07T23:52:44.120Z,69.30
2019-02-07T23:55:13.616Z,69.20
2019-02-07T23:57:41.951Z,69.10
